Flight Track Log - Related Links

Times and Time Zones

All times are in EDT time to prevent confusion due to time zone crossing. See the UAL407 flight status page for this flight to view local times or setup timezone preferences in your user account.

Time Position Orientation Groundspeed Altitude Reporting Facility
EDT Latitude Longitude Course Direction KTS MPH feet Rate Location/Type
Tue 05:50:29 PM 29.9789 -95.3006 18° North 166 191 800  Level Houston Center
Tue 05:51:30 PM 30.0336 -95.2794 18° North 251 289 2,600 1,663 Climbing Houston Center
Tue 05:52:10 PM 30.0681 -95.2703 13° North 233 268 3,600 1,254 Climbing Houston Center
Tue 05:52:37 PM 30.1133 -95.2575 14° North 287 330 4,000 1,645 Climbing Houston Center
Tue 05:53:12 PM 30.1450 -95.2489 13° North 272 313 5,300 3,224 Climbing Houston Center
Tue 05:53:44 PM 30.2014 -95.2322 14° North 291 335 7,600 3,194 Climbing Houston Center
Tue 05:54:14 PM 30.2247 -95.2264 12° North 290 334 8,600 2,739 Climbing Houston Center
Tue 05:55:16 PM 30.3211 -95.1986 14° North 295 339 11,800 2,468 Climbing Houston Center
Tue 05:56:18 PM 30.4158 -95.1697 15° North 345 397 13,700 2,064 Climbing Houston Center
Tue 05:57:21 PM 30.5283 -95.1297 17° North 374 430 16,100 2,208 Climbing Houston Center
Tue 05:58:23 PM 30.6311 -95.0922 17° North 384 442 18,300 2,032 Climbing Houston Center
Tue 05:59:25 PM 30.7375 -95.0561 16° North 394 453 20,300 1,887 Climbing Houston Center
Tue 06:00:27 PM 30.8389 -94.9928 28° Northeast 413 475 22,200 1,645 Climbing Houston Center
Tue 06:01:29 PM 30.9350 -94.9111 36° Northeast 425 489 23,700 1,452 Climbing Houston Center
Tue 06:02:31 PM 31.0317 -94.8283 36° Northeast 430 495 25,200 1,636 Climbing Houston Center
Tue 06:02:46 PM 31.0714 -94.7942 36° Northeast 433 498 25,800 1,280 Climbing Fort Worth Center
Tue 06:03:46 PM 31.1556 -94.7239 36° Northeast 433 498 26,800 950 Climbing Fort Worth Center
Tue 06:04:46 PM 31.2769 -94.6400 31° Northeast 456 525 27,700 600 Climbing Fort Worth Center
Tue 06:05:46 PM 31.4092 -94.5803 21° North 470 541 28,000 850 Climbing Fort Worth Center
Tue 06:06:46 PM 31.5372 -94.5225 21° North 487 560 29,400 1,250 Climbing Fort Worth Center
Tue 06:07:46 PM 31.6675 -94.4647 21° North 494 568 30,500 1,300 Climbing Fort Worth Center
Tue 06:08:46 PM 31.7956 -94.4044 22° Northeast 494 568 32,000 1,350 Climbing Fort Worth Center
Tue 06:09:46 PM 31.9214 -94.3467 21° North 489 563 33,200 1,200 Climbing Fort Worth Center
Tue 06:10:46 PM 32.0472 -94.2908 21° North 484 557 34,400 1,000 Climbing Fort Worth Center
Tue 06:11:46 PM 32.1733 -94.2325 21° North 484 557 35,200 900 Climbing Fort Worth Center
Tue 06:12:46 PM 32.2947 -94.1719 23° Northeast 479 551 36,200 850 Climbing Fort Worth Center
Tue 06:13:46 PM 32.4208 -94.1156 21° North 479 551 36,900 400 Climbing Fort Worth Center
Tue 06:14:46 PM 32.5464 -94.0569 21° North 479 551 37,000 50 Climbing Fort Worth Center
Tue 06:15:46 PM 32.6744 -93.9978 21° North 484 557 37,000  Level Fort Worth Center
Tue 06:16:46 PM 32.8000 -93.9386 22° Northeast 484 557 37,000  Level Fort Worth Center
Tue 06:17:46 PM 32.9278 -93.8792 21° North 484 557 37,000  Level Fort Worth Center
Tue 06:18:46 PM 33.0533 -93.8197 22° Northeast 484 557 37,000  Level Fort Worth Center
Tue 06:19:46 PM 33.1811 -93.7575 22° Northeast 489 563 37,000  Level Fort Worth Center
Tue 06:20:46 PM 33.3086 -93.6950 22° Northeast 489 563 37,000  Level Fort Worth Center
Tue 06:21:46 PM 33.4383 -93.6397 20° North 489 563 37,000  Level Fort Worth Center
Tue 06:23:20 PM 33.6353 -93.5508 21° North 498 573 37,000  Level Memphis Center
Tue 06:24:20 PM 33.7578 -93.4903 22° Northeast 485 558 37,000  Level Memphis Center
Tue 06:25:20 PM 33.8825 -93.4322 21° North 480 552 37,000  Level Memphis Center
Tue 06:26:20 PM 34.0050 -93.3739 22° Northeast 480 552 37,000  Level Memphis Center
Tue 06:27:20 PM 34.1317 -93.3131 22° Northeast 480 552 37,000  Level Memphis Center
Tue 06:28:20 PM 34.2561 -93.2547 21° North 480 552 37,000  Level Memphis Center
Tue 06:29:20 PM 34.3889 -93.1886 22° Northeast 475 547 37,000  Level Memphis Center
Tue 06:30:20 PM 34.5136 -93.1247 23° Northeast 475 547 37,000  Level Memphis Center
Tue 06:31:20 PM 34.6339 -93.0656 22° Northeast 475 547 37,000  Level Memphis Center
Tue 06:32:20 PM 34.7603 -93.0064 21° North 480 552 37,000  Level Memphis Center
Tue 06:33:21 PM 34.8825 -92.9442 23° Northeast 480 552 37,000  Level Memphis Center
Tue 06:34:20 PM 35.0047 -92.8847 22° Northeast 475 547 37,000  Level Memphis Center
Tue 06:35:20 PM 35.1269 -92.8222 23° Northeast 475 547 37,000  Level Memphis Center
Tue 06:36:20 PM 35.2406 -92.7722 20° North 475 547 37,000  Level Memphis Center
Tue 06:37:20 PM 35.3714 -92.6997 24° Northeast 470 541 37,000  Level Memphis Center
Tue 06:38:20 PM 35.4956 -92.6394 22° Northeast 470 541 37,000  Level Memphis Center
Tue 06:39:20 PM 35.6197 -92.5789 22° Northeast 475 547 37,000  Level Memphis Center
Tue 06:40:20 PM 35.7417 -92.5156 23° Northeast 475 547 37,000  Level Memphis Center
Tue 06:41:20 PM 35.8636 -92.4575 21° North 475 547 37,000  Level Memphis Center
Tue 06:42:20 PM 35.9836 -92.3964 22° Northeast 475 547 37,000  Level Memphis Center
Tue 06:43:20 PM 36.1033 -92.3378 22° Northeast 469 540 37,000  Level Memphis Center
Tue 06:44:20 PM 36.2231 -92.2761 23° Northeast 464 534 37,000  Level Memphis Center
Tue 06:46:51 PM 36.5017 -92.1289 23° Northeast 469 540 37,000  Level Kansas City Center
Tue 06:47:53 PM 36.6328 -92.0622 22° Northeast 471 542 37,000  Level Kansas City Center
Tue 06:48:55 PM 36.7778 -91.9883 22° Northeast 470 541 37,000  Level Kansas City Center
Tue 06:49:57 PM 36.9017 -91.9233 23° Northeast 479 551 37,000  Level Kansas City Center
Tue 06:50:59 PM 37.0247 -91.8594 23° Northeast 480 552 37,000  Level Kansas City Center
Tue 06:52:01 PM 37.1467 -91.7978 22° Northeast 476 548 37,000  Level Kansas City Center
Tue 06:53:03 PM 37.2681 -91.7333 23° Northeast 473 544 37,000  Level Kansas City Center
Tue 06:54:05 PM 37.3900 -91.6706 22° Northeast 474 545 37,000  Level Kansas City Center
Tue 06:55:07 PM 37.5361 -91.5928 23° Northeast 475 547 37,000  Level Kansas City Center
Tue 06:56:09 PM 37.6569 -91.5303 22° Northeast 472 543 37,000  Level Kansas City Center
Tue 06:57:11 PM 37.7775 -91.4653 23° Northeast 472 543 37,000  Level Kansas City Center
Tue 06:58:13 PM 37.8994 -91.4008 23° Northeast 475 547 37,000  Level Kansas City Center
Tue 06:59:15 PM 38.0211 -91.3361 23° Northeast 474 545 37,000 -97 Level Kansas City Center
Tue 07:00:17 PM 38.1669 -91.2589 23° Northeast 474 545 36,800 -387 Descending Kansas City Center
Tue 07:01:19 PM 38.2681 -91.2033 23° Northeast 471 542 36,200 -629 Descending Kansas City Center
Tue 07:02:21 PM 38.3892 -91.1381 23° Northeast 471 542 35,500 -581 Descending Kansas City Center
Tue 07:03:23 PM 38.5347 -91.0600 23° Northeast 471 542 35,000 -242 Descending Kansas City Center
Tue 07:04:25 PM 38.6547 -90.9936 23° Northeast 468 539 35,000  Level Kansas City Center
Tue 07:05:27 PM 38.7750 -90.9292 23° Northeast 466 536 35,000  Level Kansas City Center
Tue 07:06:29 PM 38.8958 -90.8642 23° Northeast 466 536 35,000 -240 Level Kansas City Center
Tue 07:07:32 PM 39.0158 -90.8000 23° Northeast 464 534 34,500 -768 Descending Kansas City Center
Tue 07:08:34 PM 39.1375 -90.7344 23° Northeast 469 540 33,400 -726 Descending Kansas City Center
Tue 07:09:36 PM 39.2592 -90.6658 24° Northeast 474 545 33,000 -194 Descending Kansas City Center
Tue 07:10:38 PM 39.4061 -90.5853 23° Northeast 476 548 33,000  Level Kansas City Center
Tue 07:11:40 PM 39.5269 -90.5186 23° Northeast 473 544 33,000  Level Kansas City Center
Tue 07:12:42 PM 39.6469 -90.4511 23° Northeast 470 541 33,000  Level Kansas City Center
Tue 07:13:44 PM 39.7778 -90.3786 23° Northeast 470 541 33,000  Level Kansas City Center
Tue 07:14:46 PM 39.8983 -90.3100 24° Northeast 472 543 33,000  Level Kansas City Center
Tue 07:15:48 PM 40.0181 -90.2425 23° Northeast 470 541 33,000  Level Kansas City Center
Tue 07:16:50 PM 40.1375 -90.1758 23° Northeast 469 540 33,000  Level Chicago Center
Tue 07:17:52 PM 40.2586 -90.1069 23° Northeast 472 543 33,000  Level Chicago Center
Tue 07:18:54 PM 40.3783 -90.0389 23° Northeast 471 542 33,000 -339 Level Chicago Center
Tue 07:19:56 PM 40.5067 -89.9653 24° Northeast 473 544 32,300 -823 Descending Chicago Center
Tue 07:20:58 PM 40.6317 -89.9244 14° North 469 540 31,300 -1,016 Descending Chicago Center
Tue 07:22:00 PM 40.7811 -89.9489 353° North 451 519 30,200 -1,016 Descending Chicago Center
Tue 07:23:02 PM 40.9114 -89.9689 353° North 458 527 29,200 -1,113 Descending Chicago Center
Tue 07:24:04 PM 41.0403 -89.9414 North 448 516 27,900 -1,984 Descending Chicago Center
Tue 07:25:06 PM 41.1261 -89.8122 49° Northeast 465 535 25,100 -2,565 Descending Chicago Center
Tue 07:26:08 PM 41.1836 -89.6503 65° Northeast 479 551 22,600 -2,516 Descending Chicago Center
Tue 07:27:10 PM 41.2389 -89.4956 65° Northeast 464 534 19,900 -2,468 Descending Chicago Center
Tue 07:28:12 PM 41.2928 -89.3442 65° Northeast 456 525 17,500 -2,323 Descending Chicago Center
Tue 07:29:14 PM 41.3494 -89.1833 65° Northeast 438 504 15,100 -2,098 Descending Chicago Center
Tue 07:30:15 PM 41.3964 -89.0417 66° East 424 488 13,200 -1,512 Descending Chicago Center
Tue 07:31:17 PM 41.4444 -88.9050 65° Northeast 412 474 12,000 -871 Descending Chicago Center
Tue 07:32:19 PM 41.4842 -88.7900 65° Northeast 353 406 11,400 -484 Descending Chicago Center
Tue 07:33:21 PM 41.5319 -88.6586 64° Northeast 333 383 11,000 -194 Descending Chicago Center
Tue 07:34:23 PM 41.5742 -88.5486 63° Northeast 334 384 11,000 -774 Level Chicago Center
Tue 07:35:25 PM 41.6203 -88.4456 59° Northeast 327 376 9,400 -1,548 Descending Chicago Center
Tue 07:36:27 PM 41.6772 -88.3531 50° Northeast 322 371 7,800 -1,161 Descending Chicago Center
Tue 07:37:29 PM 41.7578 -88.3233 15° North 301 346 7,000 -387 Descending Chicago Center
Tue 07:38:31 PM 41.8392 -88.3003 12° North 299 344 7,000 -290 Level Chicago Center
Tue 07:39:33 PM 41.9258 -88.2722 14° North 270 311 6,400 -774 Descending Chicago Center
Tue 07:40:35 PM 41.9669 -88.2186 44° Northeast 233 268 5,400 -1,306 Descending Chicago Center
Tue 07:41:37 PM 41.9678 -88.1386 89° East 220 253 3,700 -1,444 Descending Chicago Center
Tue 07:42:23 PM 41.9667 -88.0833 92° East 197 227 2,800 -1,174 Descending Chicago TRACON

Login

Don't have an account? Register now (free) for customized features, flight alerts, and more!